createdAt,value
2017-12-19T00:01:11.972Z,1.23
2017-12-19T00:03:39.501Z,1.23
2017-12-19T00:06:07.062Z,0.76
2017-12-19T00:08:34.600Z,1.30
2017-12-19T00:11:02.132Z,1.01
2017-12-19T00:13:29.670Z,1.29
2017-12-19T00:15:57.201Z,1.60
2017-12-19T00:18:24.758Z,1.72
2017-12-19T00:20:52.297Z,1.49
2017-12-19T00:23:20.013Z,0.86
2017-12-19T00:25:47.557Z,1.06
2017-12-19T00:28:15.203Z,1.18
2017-12-19T00:30:42.748Z,1.53
2017-12-19T00:33:10.306Z,1.72
2017-12-19T00:35:37.828Z,1.58
2017-12-19T00:38:05.400Z,1.56
2017-12-19T00:40:32.935Z,1.83
2017-12-19T00:43:00.462Z,1.87
2017-12-19T00:45:28.017Z,1.73
2017-12-19T00:47:55.557Z,1.75
2017-12-19T00:50:23.096Z,1.41
2017-12-19T00:52:50.613Z,1.05
2017-12-19T00:55:18.472Z,1.27
2017-12-19T00:57:46.036Z,1.08
2017-12-19T01:00:13.555Z,1.32
2017-12-19T01:02:41.072Z,0.96
2017-12-19T01:05:08.649Z,0.80
2017-12-19T01:07:36.170Z,0.88
2017-12-19T01:10:03.711Z,1.35
2017-12-19T01:12:31.277Z,1.78
2017-12-19T01:14:58.801Z,1.72
2017-12-19T01:17:26.322Z,1.96
2017-12-19T01:19:53.856Z,1.93
2017-12-19T01:22:21.388Z,1.88
2017-12-19T01:24:48.921Z,1.28
2017-12-19T01:27:16.475Z,1.03
2017-12-19T01:29:44.011Z,0.98
2017-12-19T01:32:11.541Z,0.98
2017-12-19T01:34:39.056Z,1.04
2017-12-19T01:37:06.596Z,1.41
2017-12-19T01:39:34.096Z,1.65
2017-12-19T01:42:02.491Z,1.13
2017-12-19T01:44:30.027Z,0.51
2017-12-19T01:46:57.566Z,0.67
2017-12-19T01:49:25.111Z,0.44
2017-12-19T01:51:52.660Z,0.63
2017-12-19T01:54:20.191Z,0.64
2017-12-19T01:56:47.732Z,0.60
2017-12-19T01:59:15.267Z,1.04
2017-12-19T02:01:42.796Z,1.37
2017-12-19T02:04:10.374Z,1.60
2017-12-19T02:06:37.907Z,1.66
2017-12-19T02:09:05.468Z,1.80
2017-12-19T02:11:32.987Z,1.80
2017-12-19T02:14:00.517Z,1.74
2017-12-19T02:16:28.068Z,0.87
2017-12-19T02:18:55.577Z,0.93
2017-12-19T02:21:23.120Z,0.66
2017-12-19T02:23:50.668Z,0.80
2017-12-19T02:26:18.189Z,1.18
2017-12-19T02:28:45.713Z,1.37
2017-12-19T02:31:13.248Z,1.58
2017-12-19T02:33:40.772Z,1.05
2017-12-19T02:36:08.411Z,0.99
2017-12-19T02:38:35.928Z,0.80
2017-12-19T02:41:03.552Z,1.27
2017-12-19T02:43:31.068Z,1.57
2017-12-19T02:45:58.592Z,1.54
2017-12-19T02:48:26.112Z,1.79
2017-12-19T02:50:53.658Z,1.69
2017-12-19T02:53:21.241Z,1.16
2017-12-19T02:55:48.787Z,0.77
2017-12-19T02:58:16.366Z,0.53
2017-12-19T03:00:43.923Z,0.58
2017-12-19T03:03:11.453Z,0.93
2017-12-19T03:05:38.991Z,1.26
2017-12-19T03:08:06.539Z,1.53
2017-12-19T03:10:34.138Z,1.03
2017-12-19T03:13:01.829Z,0.54
2017-12-19T03:15:29.378Z,0.47
2017-12-19T03:17:56.902Z,0.87
2017-12-19T03:20:24.435Z,0.98
2017-12-19T03:22:51.938Z,1.25
2017-12-19T03:25:19.444Z,1.53
2017-12-19T03:27:46.973Z,1.63
2017-12-19T03:30:14.508Z,1.81
2017-12-19T03:32:42.017Z,1.72
2017-12-19T03:35:09.552Z,1.79
2017-12-19T03:37:37.118Z,1.79
2017-12-19T03:40:04.773Z,1.89
2017-12-19T03:42:32.302Z,1.95
2017-12-19T03:44:59.838Z,1.80
2017-12-19T03:47:27.353Z,1.99
2017-12-19T03:49:54.913Z,2.11
2017-12-19T03:52:27.353Z,2.01
2017-12-19T03:54:54.858Z,2.02
2017-12-19T03:57:22.458Z,2.11
2017-12-19T03:59:49.997Z,2.09
2017-12-19T04:02:17.570Z,2.17
2017-12-19T04:04:45.100Z,2.18
2017-12-19T04:07:12.609Z,2.11
2017-12-19T04:09:40.219Z,2.17
2017-12-19T04:12:07.962Z,1.96
2017-12-19T04:14:35.487Z,2.09
2017-12-19T04:17:03.033Z,2.01
2017-12-19T04:19:30.547Z,1.61
2017-12-19T04:21:58.063Z,1.37
2017-12-19T04:24:25.573Z,1.72
2017-12-19T04:26:53.093Z,1.50
2017-12-19T04:29:20.603Z,1.59
2017-12-19T04:31:48.127Z,1.39
2017-12-19T04:34:15.787Z,1.86
2017-12-19T04:36:43.327Z,2.00
2017-12-19T04:39:10.840Z,2.05
2017-12-19T04:41:38.384Z,1.48
2017-12-19T04:44:05.912Z,1.32
2017-12-19T04:46:33.457Z,1.43
2017-12-19T04:49:00.972Z,1.50
2017-12-19T04:51:28.608Z,1.59
2017-12-19T04:53:56.115Z,1.88
2017-12-19T04:56:23.623Z,2.05
2017-12-19T04:58:51.148Z,1.87
2017-12-19T05:01:18.837Z,2.10
2017-12-19T05:03:46.375Z,2.18
2017-12-19T05:06:13.895Z,2.17
2017-12-19T05:08:41.474Z,1.09
2017-12-19T05:11:08.992Z,1.48
2017-12-19T05:13:36.507Z,1.69
2017-12-19T05:16:04.032Z,1.79
2017-12-19T05:18:31.554Z,1.07
2017-12-19T05:20:59.112Z,0.97
2017-12-19T05:23:26.654Z,1.22
2017-12-19T05:25:54.192Z,1.58
2017-12-19T05:28:21.708Z,1.80
2017-12-19T05:30:49.239Z,1.89
2017-12-19T05:33:16.769Z,2.02
2017-12-19T05:35:44.300Z,2.12
2017-12-19T05:38:11.825Z,1.61
2017-12-19T05:40:39.375Z,1.49
2017-12-19T05:43:06.922Z,1.85
2017-12-19T05:45:34.478Z,1.92
2017-12-19T05:48:02.004Z,2.01
2017-12-19T05:50:29.525Z,2.07
2017-12-19T05:52:57.084Z,1.45
2017-12-19T05:55:24.611Z,1.08
2017-12-19T05:57:52.198Z,0.94
2017-12-19T06:00:19.738Z,1.12
2017-12-19T06:02:47.284Z,1.57
2017-12-19T06:05:14.844Z,1.80
2017-12-19T06:07:42.389Z,1.86
2017-12-19T06:10:09.918Z,1.78
2017-12-19T06:12:37.448Z,1.98
2017-12-19T06:15:05.105Z,1.61
2017-12-19T06:17:33.253Z,2.04
2017-12-19T06:20:00.854Z,2.12
2017-12-19T06:22:28.413Z,2.35
2017-12-19T06:24:56.009Z,2.21
2017-12-19T06:27:23.573Z,2.18
2017-12-19T06:29:51.095Z,2.08
2017-12-19T06:32:18.619Z,2.37
2017-12-19T06:34:46.155Z,2.19
2017-12-19T06:37:13.680Z,2.20
2017-12-19T06:39:41.240Z,2.19
2017-12-19T06:42:08.775Z,1.91
2017-12-19T06:44:36.315Z,2.05
2017-12-19T06:47:03.856Z,2.16
2017-12-19T06:49:31.394Z,2.17
2017-12-19T06:51:58.923Z,2.18
2017-12-19T06:54:26.474Z,2.25
2017-12-19T06:56:54.000Z,2.25
2017-12-19T06:59:21.548Z,2.19
2017-12-19T07:01:49.073Z,2.17
2017-12-19T07:04:16.606Z,1.40
2017-12-19T07:06:44.150Z,1.64
2017-12-19T07:09:11.673Z,2.10
2017-12-19T07:11:39.220Z,2.23
2017-12-19T07:14:06.755Z,1.67
2017-12-19T07:16:34.296Z,1.26
2017-12-19T07:19:01.839Z,1.30
2017-12-19T07:21:29.389Z,1.14
2017-12-19T07:23:56.914Z,1.07
2017-12-19T07:26:24.491Z,1.22
2017-12-19T07:28:51.985Z,1.50
2017-12-19T07:31:19.763Z,1.50
2017-12-19T07:33:47.310Z,1.40
2017-12-19T07:36:14.839Z,1.45
2017-12-19T07:38:42.360Z,1.87
2017-12-19T07:41:09.931Z,2.18
2017-12-19T07:43:37.445Z,2.43
2017-12-19T07:46:05.019Z,2.72
2017-12-19T07:48:32.549Z,2.70
2017-12-19T07:51:00.091Z,2.71
2017-12-19T07:53:27.620Z,2.81
2017-12-19T07:55:55.144Z,2.83
2017-12-19T07:58:22.690Z,2.66
2017-12-19T08:00:50.221Z,2.54
2017-12-19T08:03:17.760Z,2.68
2017-12-19T08:05:45.280Z,2.79
2017-12-19T08:08:12.830Z,2.26
2017-12-19T08:10:40.361Z,2.29
2017-12-19T08:13:07.920Z,2.51
2017-12-19T08:15:35.495Z,1.70
2017-12-19T08:18:03.030Z,1.78
2017-12-19T08:20:30.580Z,2.25
2017-12-19T08:22:58.129Z,2.43
2017-12-19T08:25:25.744Z,2.21
2017-12-19T08:27:53.273Z,2.23
2017-12-19T08:30:20.829Z,2.10
2017-12-19T08:32:48.418Z,1.58
2017-12-19T08:35:15.904Z,2.01
2017-12-19T08:37:43.444Z,1.91
2017-12-19T08:40:10.998Z,1.55
2017-12-19T08:42:38.565Z,1.45
2017-12-19T08:45:06.164Z,1.61
2017-12-19T08:47:33.700Z,1.82
2017-12-19T08:50:01.302Z,2.03
2017-12-19T08:52:28.844Z,2.49
2017-12-19T08:54:56.385Z,2.51
2017-12-19T08:57:23.916Z,2.83
2017-12-19T08:59:51.457Z,2.78
2017-12-19T09:02:19.094Z,2.79
2017-12-19T09:04:46.640Z,2.75
2017-12-19T09:07:14.181Z,2.62
2017-12-19T09:09:41.726Z,2.68
2017-12-19T09:12:09.276Z,2.48
2017-12-19T09:14:36.815Z,2.21
2017-12-19T09:17:04.361Z,1.83
2017-12-19T09:19:31.877Z,2.10
2017-12-19T09:21:59.417Z,2.40
2017-12-19T09:24:26.976Z,2.15
2017-12-19T09:26:54.520Z,2.42
2017-12-19T09:29:22.099Z,2.22
2017-12-19T09:31:49.735Z,1.80
2017-12-19T09:34:17.272Z,1.64
2017-12-19T09:36:44.837Z,1.89
2017-12-19T09:39:12.356Z,1.67
2017-12-19T09:41:39.880Z,1.56
2017-12-19T09:44:07.421Z,1.64
2017-12-19T09:46:34.957Z,1.61
2017-12-19T09:49:02.500Z,1.83
2017-12-19T09:51:30.042Z,1.55
2017-12-19T09:53:57.573Z,1.53
2017-12-19T09:56:25.132Z,1.50
2017-12-19T09:58:52.682Z,1.62
2017-12-19T10:01:20.232Z,1.50
2017-12-19T10:03:47.778Z,1.57
2017-12-19T10:06:15.310Z,1.61
2017-12-19T10:08:42.827Z,1.69
2017-12-19T10:11:10.357Z,1.77
2017-12-19T10:13:37.895Z,2.29
2017-12-19T10:16:05.462Z,1.82
2017-12-19T10:18:33.035Z,1.75
2017-12-19T10:21:00.576Z,2.13
2017-12-19T10:23:28.296Z,2.28
2017-12-19T10:25:55.826Z,2.20
2017-12-19T10:28:23.352Z,1.81
2017-12-19T10:30:50.894Z,1.68
2017-12-19T10:33:18.448Z,1.76
2017-12-19T10:35:47.222Z,1.97
2017-12-19T10:38:15.388Z,2.19
2017-12-19T10:40:44.975Z,1.91
2017-12-19T10:43:15.404Z,1.84
2017-12-19T10:45:45.033Z,1.77
2017-12-19T10:48:15.703Z,1.93
2017-12-19T10:50:44.478Z,2.22
2017-12-19T10:53:13.818Z,2.09
2017-12-19T10:55:41.838Z,2.55
2017-12-19T10:58:09.921Z,2.35
2017-12-19T11:00:39.910Z,2.35
2017-12-19T11:03:09.201Z,2.17
2017-12-19T11:05:40.953Z,2.12
2017-12-19T11:08:10.252Z,2.45
2017-12-19T11:10:39.548Z,3.08
2017-12-19T11:13:08.643Z,2.31
2017-12-19T11:15:37.728Z,2.67
2017-12-19T11:18:07.957Z,3.26
2017-12-19T11:20:36.709Z,3.44
2017-12-19T11:23:06.382Z,2.94
2017-12-19T11:25:35.712Z,2.96
2017-12-19T11:28:05.953Z,3.62
2017-12-19T11:30:35.648Z,3.77
2017-12-19T11:33:05.056Z,3.22
2017-12-19T11:35:35.183Z,3.46
2017-12-19T11:38:04.429Z,3.84
2017-12-19T11:40:33.419Z,3.73
2017-12-19T11:43:04.853Z,3.86
2017-12-19T11:45:37.547Z,3.29
2017-12-19T11:48:05.971Z,3.25
2017-12-19T11:50:35.517Z,3.67
2017-12-19T11:53:06.293Z,3.34
2017-12-19T11:55:35.526Z,3.19
2017-12-19T11:58:05.221Z,3.49
2017-12-19T12:00:34.650Z,3.71
2017-12-19T12:03:04.663Z,3.67
2017-12-19T12:05:34.240Z,3.39
2017-12-19T12:08:07.925Z,3.52
2017-12-19T12:10:40.682Z,3.04
2017-12-19T12:13:12.492Z,2.57
2017-12-19T12:15:44.227Z,2.80
2017-12-19T12:18:15.531Z,2.70
2017-12-19T12:20:43.074Z,2.23
2017-12-19T12:23:11.893Z,2.51
2017-12-19T12:25:39.423Z,2.40
2017-12-19T12:28:06.978Z,2.24
2017-12-19T12:30:34.549Z,2.36
2017-12-19T12:33:02.093Z,2.79
2017-12-19T12:35:29.648Z,2.78
2017-12-19T12:37:57.183Z,2.86
2017-12-19T12:40:24.707Z,2.43
2017-12-19T12:42:52.243Z,2.47
2017-12-19T12:45:19.788Z,2.32
2017-12-19T12:47:47.348Z,2.29
2017-12-19T12:50:14.887Z,2.85
2017-12-19T12:52:42.437Z,3.02
2017-12-19T12:55:09.968Z,2.34
2017-12-19T12:57:37.513Z,2.26
2017-12-19T13:00:05.078Z,2.39
2017-12-19T13:02:32.612Z,2.80
2017-12-19T13:05:00.159Z,3.11
2017-12-19T13:07:27.712Z,3.51
2017-12-19T13:09:55.283Z,3.56
2017-12-19T13:12:22.840Z,3.03
2017-12-19T13:14:50.392Z,2.68
2017-12-19T13:17:17.948Z,3.15
2017-12-19T13:19:45.491Z,3.26
2017-12-19T13:22:13.044Z,3.59
2017-12-19T13:24:40.569Z,3.81
2017-12-19T13:27:08.208Z,3.89
2017-12-19T13:29:35.764Z,3.00
2017-12-19T13:32:03.332Z,2.75
2017-12-19T13:34:30.897Z,2.42
2017-12-19T13:36:58.472Z,2.58
2017-12-19T13:39:25.989Z,2.43
2017-12-19T13:41:53.582Z,2.85
2017-12-19T13:44:21.135Z,2.88
2017-12-19T13:46:48.649Z,2.61
2017-12-19T13:49:16.207Z,2.52
2017-12-19T13:51:43.773Z,2.63
2017-12-19T13:54:11.401Z,2.55
2017-12-19T13:56:38.934Z,2.35
2017-12-19T13:59:06.517Z,2.43
2017-12-19T14:01:34.071Z,2.26
2017-12-19T14:04:01.612Z,2.27
2017-12-19T14:06:29.149Z,2.15
2017-12-19T14:08:56.694Z,2.26
2017-12-19T14:11:24.304Z,2.35
2017-12-19T14:13:51.849Z,2.56
2017-12-19T14:16:19.379Z,2.83
2017-12-19T14:18:46.918Z,2.65
2017-12-19T14:21:14.470Z,2.13
2017-12-19T14:23:42.004Z,2.27
2017-12-19T14:26:09.658Z,2.29
2017-12-19T14:28:37.184Z,2.41
2017-12-19T14:31:04.740Z,2.05
2017-12-19T14:33:32.318Z,2.33
2017-12-19T14:35:59.892Z,2.12
2017-12-19T14:38:27.447Z,1.90
2017-12-19T14:40:54.998Z,2.03
2017-12-19T14:43:22.525Z,2.53
2017-12-19T14:45:50.052Z,2.81
2017-12-19T14:48:17.623Z,2.19
2017-12-19T14:50:45.142Z,2.48
2017-12-19T14:53:12.689Z,2.52
2017-12-19T14:55:40.257Z,2.62
2017-12-19T14:58:07.782Z,2.91
2017-12-19T15:00:35.332Z,2.33
2017-12-19T15:03:02.908Z,2.22
2017-12-19T15:05:30.450Z,2.56
2017-12-19T15:07:57.992Z,2.05
2017-12-19T15:10:25.530Z,2.00
2017-12-19T15:12:53.070Z,2.34
2017-12-19T15:15:20.649Z,2.45
2017-12-19T15:17:48.199Z,2.53
2017-12-19T15:20:15.734Z,2.69
2017-12-19T15:22:43.279Z,2.76
2017-12-19T15:25:10.819Z,2.96
2017-12-19T15:27:38.403Z,3.13
2017-12-19T15:30:05.946Z,2.71
2017-12-19T15:32:33.470Z,1.76
2017-12-19T15:35:01.114Z,1.62
2017-12-19T15:37:28.674Z,1.69
2017-12-19T15:39:56.222Z,1.82
2017-12-19T15:42:23.762Z,1.98
2017-12-19T15:44:51.319Z,1.73
2017-12-19T15:47:18.889Z,1.82
2017-12-19T15:49:46.413Z,1.95
2017-12-19T15:52:13.954Z,2.24
2017-12-19T15:54:41.492Z,2.40
2017-12-19T15:57:09.035Z,2.50
2017-12-19T15:59:36.579Z,2.02
2017-12-19T16:02:04.114Z,2.08
2017-12-19T16:04:31.651Z,2.35
2017-12-19T16:06:59.187Z,2.26
2017-12-19T16:09:26.748Z,2.49
2017-12-19T16:11:54.303Z,2.55
2017-12-19T16:14:21.848Z,2.73
2017-12-19T16:16:49.385Z,2.47
2017-12-19T16:19:16.914Z,2.87
2017-12-19T16:21:44.444Z,2.22
2017-12-19T16:24:11.968Z,2.38
2017-12-19T16:26:39.509Z,1.92
2017-12-19T16:29:07.065Z,2.17
2017-12-19T16:31:34.605Z,2.45
2017-12-19T16:34:02.160Z,2.51
2017-12-19T16:36:29.693Z,2.19
2017-12-19T16:38:57.233Z,2.39
2017-12-19T16:41:24.778Z,2.03
2017-12-19T16:43:52.366Z,1.76
2017-12-19T16:46:19.915Z,1.84
2017-12-19T16:48:47.486Z,2.21
2017-12-19T16:51:15.087Z,2.14
2017-12-19T16:53:42.617Z,2.01
2017-12-19T16:56:10.164Z,1.82
2017-12-19T16:58:37.688Z,2.16
2017-12-19T17:01:07.847Z,2.20
2017-12-19T17:03:35.391Z,2.20
2017-12-19T17:06:02.925Z,2.04
2017-12-19T17:08:30.459Z,2.01
2017-12-19T17:10:57.998Z,2.18
2017-12-19T17:13:25.545Z,2.47
2017-12-19T17:15:53.095Z,2.59
2017-12-19T17:18:20.626Z,2.24
2017-12-19T17:20:48.254Z,2.48
2017-12-19T17:23:15.809Z,2.37
2017-12-19T17:25:43.374Z,2.07
2017-12-19T17:28:10.929Z,1.65
2017-12-19T17:30:38.481Z,1.67
2017-12-19T17:33:06.019Z,1.59
2017-12-19T17:35:33.568Z,1.87
2017-12-19T17:38:01.094Z,2.10
2017-12-19T17:40:28.628Z,2.14
2017-12-19T17:42:56.175Z,2.27
2017-12-19T17:45:23.709Z,1.54
2017-12-19T17:47:51.231Z,1.50
2017-12-19T17:50:18.797Z,1.72
2017-12-19T17:52:46.337Z,1.95
2017-12-19T17:55:13.946Z,2.32
2017-12-19T17:57:41.499Z,1.97
2017-12-19T18:00:09.079Z,1.71
2017-12-19T18:02:36.723Z,1.54
2017-12-19T18:05:04.295Z,1.69
2017-12-19T18:07:31.847Z,1.83
2017-12-19T18:09:59.419Z,1.66
2017-12-19T18:12:26.978Z,1.66
2017-12-19T18:14:54.539Z,1.84
2017-12-19T18:17:22.054Z,1.83
2017-12-19T18:19:49.589Z,1.60
2017-12-19T18:22:17.130Z,1.40
2017-12-19T18:24:44.703Z,1.26
2017-12-19T18:27:12.228Z,1.38
2017-12-19T18:29:39.780Z,1.68
2017-12-19T18:32:07.320Z,1.56
2017-12-19T18:34:34.889Z,1.48
2017-12-19T18:37:02.459Z,1.34
2017-12-19T18:39:30.011Z,1.32
2017-12-19T18:41:57.550Z,1.45
2017-12-19T18:44:25.129Z,1.46
2017-12-19T18:46:52.788Z,1.36
2017-12-19T18:49:20.385Z,1.32
2017-12-19T18:51:47.929Z,1.32
2017-12-19T18:54:15.514Z,1.37
2017-12-19T18:56:43.131Z,1.25
2017-12-19T18:59:10.676Z,1.18
2017-12-19T19:01:38.234Z,1.19
2017-12-19T19:04:05.769Z,1.29
2017-12-19T19:06:33.683Z,1.47
2017-12-19T19:09:01.745Z,1.41
2017-12-19T19:11:29.316Z,1.35
2017-12-19T19:13:56.870Z,1.23
2017-12-19T19:16:25.120Z,1.18
2017-12-19T19:18:52.689Z,1.62
2017-12-19T19:21:20.310Z,1.86
2017-12-19T19:23:52.215Z,1.70
2017-12-19T19:26:20.289Z,1.39
2017-12-19T19:28:48.861Z,1.44
2017-12-19T19:31:17.244Z,1.39
2017-12-19T19:33:46.564Z,1.55
2017-12-19T19:36:14.103Z,1.81
2017-12-19T19:38:42.945Z,1.86
2017-12-19T19:41:10.476Z,1.79
2017-12-19T19:43:38.184Z,1.82
2017-12-19T19:46:10.413Z,2.20
2017-12-19T19:48:38.204Z,2.35
2017-12-19T19:51:06.500Z,2.06
2017-12-19T19:53:34.709Z,2.27
2017-12-19T19:56:02.276Z,2.09
2017-12-19T19:58:29.990Z,2.16
2017-12-19T20:00:59.024Z,2.34
2017-12-19T20:03:26.906Z,2.59
2017-12-19T20:05:55.285Z,2.32
2017-12-19T20:08:22.849Z,1.90
2017-12-19T20:10:53.229Z,1.75
2017-12-19T20:13:21.629Z,1.74
2017-12-19T20:15:49.805Z,1.83
2017-12-19T20:18:18.175Z,1.83
2017-12-19T20:20:46.655Z,1.99
2017-12-19T20:23:14.893Z,2.14
2017-12-19T20:25:43.255Z,2.11
2017-12-19T20:28:10.901Z,1.53
2017-12-19T20:30:39.180Z,1.32
2017-12-19T20:33:07.451Z,1.32
2017-12-19T20:35:35.124Z,1.22
2017-12-19T20:38:02.719Z,1.29
2017-12-19T20:40:31.075Z,1.38
2017-12-19T20:42:58.723Z,1.73
2017-12-19T20:45:27.913Z,1.99
2017-12-19T20:47:55.551Z,2.11
2017-12-19T20:50:23.836Z,2.34
2017-12-19T20:52:51.375Z,2.29
2017-12-19T20:55:19.795Z,2.35
2017-12-19T20:57:47.460Z,2.24
2017-12-19T21:00:15.146Z,1.96
2017-12-19T21:02:42.751Z,2.27
2017-12-19T21:05:10.844Z,1.67
2017-12-19T21:07:38.430Z,1.57
2017-12-19T21:10:05.988Z,1.41
2017-12-19T21:12:33.551Z,1.64
2017-12-19T21:15:01.599Z,1.88
2017-12-19T21:17:29.765Z,1.57
2017-12-19T21:19:57.386Z,2.26
2017-12-19T21:22:24.941Z,1.93
2017-12-19T21:24:52.524Z,1.47
2017-12-19T21:27:20.064Z,1.73
2017-12-19T21:29:47.614Z,1.41
2017-12-19T21:32:15.330Z,1.37
2017-12-19T21:34:42.881Z,1.21
2017-12-19T21:37:10.458Z,1.40
2017-12-19T21:39:38.054Z,1.72
2017-12-19T21:42:05.590Z,2.19
2017-12-19T21:44:33.133Z,2.28
2017-12-19T21:47:00.685Z,2.48
2017-12-19T21:49:28.229Z,2.39
2017-12-19T21:51:55.768Z,1.78
2017-12-19T21:54:23.326Z,1.73
2017-12-19T21:56:50.865Z,2.03
2017-12-19T21:59:18.399Z,2.18
2017-12-19T22:01:45.951Z,2.37
2017-12-19T22:04:13.490Z,2.01
2017-12-19T22:06:41.024Z,2.24
2017-12-19T22:09:08.827Z,1.86
2017-12-19T22:11:36.424Z,2.01
2017-12-19T22:14:03.958Z,1.80
2017-12-19T22:16:31.500Z,1.61
2017-12-19T22:18:59.054Z,1.32
2017-12-19T22:21:26.614Z,1.41
2017-12-19T22:23:54.158Z,1.88
2017-12-19T22:26:21.704Z,2.13
2017-12-19T22:28:49.224Z,2.24
2017-12-19T22:31:16.780Z,2.27
2017-12-19T22:33:44.321Z,2.15
2017-12-19T22:36:11.855Z,2.27
2017-12-19T22:38:39.386Z,2.20
2017-12-19T22:41:06.931Z,2.05
2017-12-19T22:43:34.470Z,2.30
2017-12-19T22:46:02.003Z,2.19
2017-12-19T22:48:29.520Z,2.22
2017-12-19T22:50:57.071Z,2.14
2017-12-19T22:53:24.625Z,1.98
2017-12-19T22:55:52.144Z,1.73
2017-12-19T22:58:19.671Z,2.04
2017-12-19T23:00:47.336Z,2.17
2017-12-19T23:03:14.870Z,2.04
2017-12-19T23:05:42.410Z,2.24
2017-12-19T23:08:09.975Z,2.46
2017-12-19T23:10:37.513Z,2.43
2017-12-19T23:13:05.036Z,2.33
2017-12-19T23:15:32.616Z,2.03
2017-12-19T23:18:00.171Z,2.17
2017-12-19T23:20:27.700Z,2.25
2017-12-19T23:22:55.245Z,2.31
2017-12-19T23:25:22.817Z,2.23
2017-12-19T23:27:50.346Z,1.94
2017-12-19T23:30:17.898Z,1.90
2017-12-19T23:32:45.426Z,1.88
2017-12-19T23:35:12.964Z,2.05
2017-12-19T23:37:40.494Z,2.13
2017-12-19T23:40:08.054Z,2.40
2017-12-19T23:42:35.583Z,2.28
2017-12-19T23:45:03.112Z,2.33
2017-12-19T23:47:30.656Z,2.03
2017-12-19T23:49:58.184Z,2.32
2017-12-19T23:52:25.705Z,2.46
2017-12-19T23:54:53.246Z,2.43
2017-12-19T23:57:20.806Z,2.48
2017-12-19T23:59:48.335Z,2.32
